Time;durP1;ratioP1;P1;durP2;ratioP2;P2;SDS_P1;SDS_P2;PMS_P1;PMS_P2;Temp;Humidity;BMP_temperature;BMP_pressure;BME280_temperature;BME280_humidity;BME280_pressure;Samples;Min_cycle;Max_cycle;Signal;HPM_P1;HPM_P2
2021/07/04 00:02:17;;;;;;;;;;;;;;;15.92;78.67;96719.50;1830872;77;20163;-80
2021/07/04 00:04:44;;;;;;;;;;;;;;;15.91;78.44;96723.97;1841290;77;20388;-76
2021/07/04 00:07:11;;;;;;;;;;;;;;;15.90;78.64;96720.16;1834197;77;20092;-74
2021/07/04 00:09:38;;;;;;;;;;;;;;;15.90;78.19;96720.16;1849134;77;20108;-76
2021/07/04 00:12:05;;;;;;;;;;;;;;;15.91;78.61;96717.33;1844828;77;20123;-83
2021/07/04 00:14:32;;;;;;;;;;;;;;;15.95;78.33;96717.01;1825743;77;20380;-77
2021/07/04 00:16:58;;;;;;;;;;;;;;;15.90;78.48;96712.19;1811589;77;20392;-77
2021/07/04 00:19:24;;;;;;;;;;;;;;;15.85;78.21;96708.70;1835672;77;20132;-76
2021/07/04 00:21:50;;;;;;;;;;;;;;;15.83;78.20;96705.85;1846969;77;20115;-82
2021/07/04 00:24:16;;;;;;;;;;;;;;;15.79;78.22;96700.05;1849190;77;20221;-89
2021/07/04 00:26:43;;;;;;;;;;;;;;;15.76;78.24;96706.52;1847688;77;20125;-81
2021/07/04 00:29:09;;;;;;;;;;;;;;;15.76;78.32;96696.38;1851436;77;20118;-76
2021/07/04 00:31:37;;;;;;;;;;;;;;;15.75;78.49;96697.38;1844627;77;20455;-75
2021/07/04 00:34:03;;;;;;;;;;;;;;;15.74;78.23;96685.92;1830522;77;20387;-89
2021/07/04 00:36:30;;;;;;;;;;;;;;;15.70;78.32;96691.22;1829650;77;20103;-76
2021/07/04 00:38:56;;;;;;;;;;;;;;;15.68;78.50;96687.08;1820953;77;20187;-75
2021/07/04 00:41:24;;;;;;;;;;;;;;;15.70;78.43;96688.56;1833934;77;20277;-75
2021/07/04 00:43:50;;;;;;;;;;;;;;;15.70;78.27;96687.75;1828842;77;20088;-79
2021/07/04 00:46:17;;;;;;;;;;;;;;;15.64;78.20;96683.11;1836334;77;20450;-76
2021/07/04 00:48:44;;;;;;;;;;;;;;;15.59;77.93;96679.63;1845512;77;20181;-76
2021/07/04 00:51:12;;;;;;;;;;;;;;;15.55;78.10;96680.93;1846015;77;20114;-74
2021/07/04 00:53:39;;;;;;;;;;;;;;;15.52;78.23;96679.92;1848100;77;20506;-76
2021/07/04 00:56:05;;;;;;;;;;;;;;;15.48;77.94;96680.75;1826057;77;20452;-75
2021/07/04 00:58:32;;;;;;;;;;;;;;;15.42;78.22;96678.77;1842296;77;20365;-78
2021/07/04 01:00:59;;;;;;;;;;;;;;;15.42;78.44;96682.23;1847539;78;20088;-77
2021/07/04 01:03:27;;;;;;;;;;;;;;;15.43;78.67;96681.75;1835989;77;20139;-77
2021/07/04 01:05:56;;;;;;;;;;;;;;;15.47;78.63;96679.09;1835754;77;20136;-76
2021/07/04 01:08:23;;;;;;;;;;;;;;;15.48;78.49;96681.27;1823305;77;20439;-79
2021/07/04 01:10:50;;;;;;;;;;;;;;;15.51;78.59;96684.42;1828602;77;20131;-82
2021/07/04 01:13:17;;;;;;;;;;;;;;;15.51;78.12;96684.42;1836617;77;20147;-76
2021/07/04 01:15:45;;;;;;;;;;;;;;;15.47;78.18;96683.07;1830399;77;20194;-82
2021/07/04 01:18:13;;;;;;;;;;;;;;;15.47;78.38;96683.07;1847686;77;20141;-77
2021/07/04 01:20:42;;;;;;;;;;;;;;;15.50;78.56;96680.09;1846774;77;20100;-81
2021/07/04 01:23:11;;;;;;;;;;;;;;;15.51;78.44;96672.47;1841447;77;20123;-76
2021/07/04 01:25:48;;;;;;;;;;;;;;;15.51;78.21;96679.59;1827621;77;20393;-77
2021/07/04 01:28:15;;;;;;;;;;;;;;;15.47;78.15;96671.13;1840234;77;20179;-78
2021/07/04 01:30:45;;;;;;;;;;;;;;;15.47;78.27;96681.74;1832876;77;20368;-84
2021/07/04 01:33:11;;;;;;;;;;;;;;;15.44;78.21;96677.59;1846312;77;20580;-74
2021/07/04 01:35:38;;;;;;;;;;;;;;;15.42;78.29;96678.77;1825850;77;20143;-75
2021/07/04 01:38:04;;;;;;;;;;;;;;;15.40;78.46;96669.64;1823669;77;20092;-78
2021/07/04 01:40:31;;;;;;;;;;;;;;;15.41;78.63;96673.11;1844255;77;20104;-75
2021/07/04 01:42:58;;;;;;;;;;;;;;;15.41;78.52;96670.46;1834806;77;20104;-74
2021/07/04 01:45:25;;;;;;;;;;;;;;;15.40;78.28;96670.97;1831954;77;20092;-74
2021/07/04 01:47:54;;;;;;;;;;;;;;;15.38;77.72;96670.78;1846182;77;20103;-79
2021/07/04 01:50:28;;;;;;;;;;;;;;;15.32;78.18;96670.11;1838044;77;20121;-76
2021/07/04 01:52:55;;;;;;;;;;;;;;;15.31;78.59;96669.30;1843398;77;20203;-76
2021/07/04 01:55:22;;;;;;;;;;;;;;;15.30;78.28;96662.33;1838743;77;20188;-76
2021/07/04 01:57:50;;;;;;;;;;;;;;;15.29;78.46;96659.33;1849798;77;20122;-83
2021/07/04 02:00:21;;;;;;;;;;;;;;;15.30;78.49;96659.16;1829048;77;20547;-76
2021/07/04 02:02:52;;;;;;;;;;;;;;;15.32;78.33;96660.31;1845275;77;20151;-76
2021/07/04 02:05:21;;;;;;;;;;;;;;;15.34;78.24;96659.66;1848312;78;20104;-77
2021/07/04 02:07:49;;;;;;;;;;;;;;;15.28;78.12;96658.48;1837375;77;20111;-76
2021/07/04 02:10:26;;;;;;;;;;;;;;;15.26;78.37;96659.17;1847192;77;20413;-76
2021/07/04 02:12:53;;;;;;;;;;;;;;;15.23;78.28;96662.14;1849499;77;20419;-74
2021/07/04 02:15:24;;;;;;;;;;;;;;;15.23;78.24;96667.45;1849595;77;20400;-76
2021/07/04 02:18:04;;;;;;;;;;;;;;;15.26;78.30;96671.11;1843272;77;20097;-76
2021/07/04 02:20:35;;;;;;;;;;;;;;;15.27;78.31;96666.11;1814504;78;20086;-76
2021/07/04 02:23:28;;;;;;;;;;;;;;;15.33;78.26;96671.27;1823068;79;20402;-76
2021/07/04 02:26:13;;;;;;;;;;;;;;;15.37;78.17;96663.80;1851408;77;20134;-76
2021/07/04 02:28:41;;;;;;;;;;;;;;;15.41;78.28;96669.13;1849450;77;20252;-77
2021/07/04 02:31:09;;;;;;;;;;;;;;;15.46;79.45;96677.42;1849158;77;20111;-76
2021/07/04 02:33:36;;;;;;;;;;;;;;;15.45;78.62;96669.97;1849289;77;20446;-76
2021/07/04 02:36:03;;;;;;;;;;;;;;;15.50;78.31;96669.47;1849180;77;20434;-76
2021/07/04 02:38:32;;;;;;;;;;;;;;;15.52;78.53;96672.80;1849308;77;20415;-76
2021/07/04 02:40:59;;;;;;;;;;;;;;;15.56;78.29;96672.79;1846952;77;20162;-76
2021/07/04 02:43:26;;;;;;;;;;;;;;;15.63;78.26;96676.95;1849488;77;20337;-74
2021/07/04 02:45:54;;;;;;;;;;;;;;;15.73;78.31;96675.48;1851485;77;20138;-76
2021/07/04 02:48:22;;;;;;;;;;;;;;;15.76;77.86;96674.64;1848148;77;20114;-76
2021/07/04 02:50:51;;;;;;;;;;;;;;;15.69;77.75;96678.12;1824734;77;20165;-74
2021/07/04 02:53:19;;;;;;;;;;;;;;;15.59;77.35;96679.63;1849386;77;20118;-76
2021/07/04 02:55:47;;;;;;;;;;;;;;;15.64;79.62;96680.45;1849343;77;20126;-74
2021/07/04 02:58:14;;;;;;;;;;;;;;;15.66;78.37;96674.45;1845789;77;20093;-78
2021/07/04 03:00:44;;;;;;;;;;;;;;;15.67;78.83;96680.10;1844030;77;20131;-77
2021/07/04 03:03:09;;;;;;;;;;;;;;;15.72;78.62;96681.27;1842207;77;20108;-76
2021/07/04 03:05:36;;;;;;;;;;;;;;;15.81;78.34;96679.45;1825502;77;20107;-77
2021/07/04 03:08:04;;;;;;;;;;;;;;;15.81;78.71;96688.76;1835665;77;20152;-77
2021/07/04 03:10:33;;;;;;;;;;;;;;;15.88;78.89;96682.28;1831944;77;20272;-86
2021/07/04 03:13:00;;;;;;;;;;;;;;;15.91;78.56;96681.45;1849634;77;20118;-77
2021/07/04 03:15:27;;;;;;;;;;;;;;;15.99;78.46;96683.28;1851114;77;20109;-79
2021/07/04 03:17:55;;;;;;;;;;;;;;;16.10;78.43;96691.91;1847665;77;20134;-77
2021/07/04 03:20:23;;;;;;;;;;;;;;;16.19;79.83;96696.22;1838668;77;20123;-83
2021/07/04 03:22:51;;;;;;;;;;;;;;;16.22;78.68;96696.71;1830179;77;20107;-77
2021/07/04 03:25:18;;;;;;;;;;;;;;;16.29;77.90;96692.03;1843047;77;20130;-82
2021/07/04 03:27:45;;;;;;;;;;;;;;;16.36;78.16;96699.69;1825225;77;20106;-76
2021/07/04 03:30:17;;;;;;;;;;;;;;;16.43;78.67;96698.00;1847820;77;20191;-78
2021/07/04 03:32:47;;;;;;;;;;;;;;;16.46;78.47;96695.50;1847310;77;20126;-75
2021/07/04 03:35:17;;;;;;;;;;;;;;;16.47;79.00;96702.48;1839630;77;20096;-74
2021/07/04 03:37:45;;;;;;;;;;;;;;;16.49;79.31;96696.50;1822837;77;20083;-76
2021/07/04 03:40:14;;;;;;;;;;;;;;;16.51;78.91;96699.83;1837543;77;20167;-76
2021/07/04 03:42:42;;;;;;;;;;;;;;;16.55;78.83;96704.64;1847133;77;20149;-82
2021/07/04 03:45:11;;;;;;;;;;;;;;;16.61;78.12;96709.75;1823197;77;20114;-82
2021/07/04 03:47:40;;;;;;;;;;;;;;;16.63;79.29;96707.75;1850072;77;20147;-75
2021/07/04 03:50:09;;;;;;;;;;;;;;;16.66;78.29;96710.56;1850880;77;20142;-78
2021/07/04 03:52:38;;;;;;;;;;;;;;;16.68;77.67;96709.41;1834731;77;20123;-77
2021/07/04 03:55:05;;;;;;;;;;;;;;;16.72;78.36;96708.56;1844691;77;20087;-77
2021/07/04 03:57:32;;;;;;;;;;;;;;;16.78;78.65;96704.39;1836032;77;20389;-79
2021/07/04 04:00:10;;;;;;;;;;;;;;;16.85;77.43;96700.03;1831542;77;20092;-78
2021/07/04 04:02:47;;;;;;;;;;;;;;;16.84;79.09;96705.84;1822353;77;20175;-78
2021/07/04 04:05:15;;;;;;;;;;;;;;;16.85;79.69;96711.50;1828918;77;20100;-74
2021/07/04 04:07:43;;;;;;;;;;;;;;;16.87;77.66;96704.70;1835204;77;20108;-81
2021/07/04 04:10:12;;;;;;;;;;;;;;;16.89;78.62;96703.18;1839706;77;20108;-77
2021/07/04 04:12:40;;;;;;;;;;;;;;;16.95;79.24;96703.36;1833338;77;20151;-83
2021/07/04 04:15:10;;;;;;;;;;;;;;;16.99;77.98;96704.65;1834775;77;20436;-76
2021/07/04 04:17:38;;;;;;;;;;;;;;;17.04;78.04;96701.98;1830276;77;20127;-74
2021/07/04 04:20:08;;;;;;;;;;;;;;;17.07;78.35;96703.80;1834873;77;20099;-79
2021/07/04 04:22:35;;;;;;;;;;;;;;;17.08;79.21;96705.94;1822947;77;20080;-75
2021/07/04 04:25:03;;;;;;;;;;;;;;;17.10;79.26;96703.94;1822984;77;20420;-79
2021/07/04 04:27:30;;;;;;;;;;;;;;;17.12;78.59;96709.92;1826441;77;20233;-77
2021/07/04 04:29:57;;;;;;;;;;;;;;;17.14;78.80;96706.08;1842869;77;20453;-77
2021/07/04 04:32:23;;;;;;;;;;;;;;;17.22;79.86;96713.69;1843160;77;20148;-81
2021/07/04 04:34:50;;;;;;;;;;;;;;;17.28;77.90;96712.50;1843508;77;20152;-77
2021/07/04 04:37:17;;;;;;;;;;;;;;;17.36;79.80;96703.64;1839043;77;20136;-77
2021/07/04 04:39:43;;;;;;;;;;;;;;;17.44;77.39;96704.92;1832900;77;20088;-77
2021/07/04 04:42:09;;;;;;;;;;;;;;;17.55;80.53;96709.00;1849361;77;20138;-76
2021/07/04 04:44:37;;;;;;;;;;;;;;;17.60;78.86;96703.14;1849886;77;20166;-78
2021/07/04 04:47:05;;;;;;;;;;;;;;;17.68;78.69;96702.27;1848634;77;20415;-76
2021/07/04 04:49:32;;;;;;;;;;;;;;;17.74;79.26;96701.54;1847453;77;20072;-74
2021/07/04 04:52:00;;;;;;;;;;;;;;;17.84;79.15;96707.47;1842197;77;20139;-77
2021/07/04 04:54:26;;;;;;;;;;;;;;;17.92;78.68;96708.73;1844884;77;20427;-75
2021/07/04 04:56:52;;;;;;;;;;;;;;;18.02;80.41;96715.20;1840207;77;20144;-77
2021/07/04 04:59:18;;;;;;;;;;;;;;;18.13;78.15;96709.92;1832790;77;20157;-76
2021/07/04 05:01:44;;;;;;;;;;;;;;;18.29;78.46;96714.77;1844278;77;20210;-78
2021/07/04 05:04:10;;;;;;;;;;;;;;;18.45;78.44;96718.64;1838009;77;20437;-77
2021/07/04 05:06:37;;;;;;;;;;;;;;;18.60;79.80;96716.47;1825671;77;20175;-78
2021/07/04 05:09:04;;;;;;;;;;;;;;;18.71;82.08;96722.17;1845840;77;20143;-76
2021/07/04 05:11:30;;;;;;;;;;;;;;;18.72;76.78;96723.02;1842322;77;20194;-77
2021/07/04 05:13:56;;;;;;;;;;;;;;;18.78;77.75;96720.94;1851728;77;20521;-79
2021/07/04 05:16:22;;;;;;;;;;;;;;;18.86;79.66;96722.17;1852312;77;20114;-83
2021/07/04 05:18:48;;;;;;;;;;;;;;;18.90;76.91;96726.64;1851012;77;20134;-81
2021/07/04 05:21:14;;;;;;;;;;;;;;;18.97;80.15;96725.43;1850000;77;20145;-79
2021/07/04 05:23:40;;;;;;;;;;;;;;;18.98;79.05;96730.58;1851535;77;20129;-76
2021/07/04 05:26:07;;;;;;;;;;;;;;;19.04;78.02;96735.68;1849742;77;20116;-76
2021/07/04 05:28:33;;;;;;;;;;;;;;;19.04;78.76;96732.52;1833093;77;20091;-77
2021/07/04 05:30:59;;;;;;;;;;;;;;;19.08;75.99;96724.12;1834950;77;20178;-77
2021/07/04 05:33:25;;;;;;;;;;;;;;;19.16;78.44;96732.87;1839880;77;20083;-76
2021/07/04 05:35:51;;;;;;;;;;;;;;;19.23;77.67;96732.95;1825515;77;20085;-77
2021/07/04 05:38:22;;;;;;;;;;;;;;;19.26;76.96;96737.91;1835724;77;20124;-77
2021/07/04 05:40:46;;;;;;;;;;;;;;;19.30;77.47;96735.19;1832449;77;20118;-78
2021/07/04 05:43:13;;;;;;;;;;;;;;;19.32;76.48;96737.67;1836555;77;20179;-77
2021/07/04 05:45:39;;;;;;;;;;;;;;;19.27;74.94;96738.23;1827436;77;20139;-82
2021/07/04 05:48:06;;;;;;;;;;;;;;;19.26;74.52;96733.90;1831423;77;20096;-77
2021/07/04 05:50:32;;;;;;;;;;;;;;;19.25;75.68;96733.61;1843247;77;20099;-77
2021/07/04 05:52:58;;;;;;;;;;;;;;;19.22;74.18;96741.98;1844153;77;20124;-77
2021/07/04 05:55:24;;;;;;;;;;;;;;;19.18;74.40;96747.36;1843293;77;20100;-77
2021/07/04 05:57:50;;;;;;;;;;;;;;;19.13;77.90;96745.25;1843252;77;20077;-76
2021/07/04 06:00:17;;;;;;;;;;;;;;;19.09;73.89;96750.66;1828865;77;20154;-78
2021/07/04 06:02:44;;;;;;;;;;;;;;;19.05;75.35;96740.02;1830271;77;20495;-79
2021/07/04 06:05:13;;;;;;;;;;;;;;;19.02;75.73;96741.22;1823065;77;20381;-78
2021/07/04 06:07:39;;;;;;;;;;;;;;;18.99;74.47;96741.58;1830633;77;20131;-85
2021/07/04 06:10:06;;;;;;;;;;;;;;;18.98;76.25;96745.27;1830392;77;20132;-78
2021/07/04 06:12:32;;;;;;;;;;;;;;;19.00;74.87;96750.44;1848681;77;20118;-79
2021/07/04 06:15:00;;;;;;;;;;;;;;;18.99;76.44;96758.12;1835870;77;20393;-78
2021/07/04 06:17:26;;;;;;;;;;;;;;;19.00;76.96;96755.26;1832550;77;20479;-82
2021/07/04 06:19:52;;;;;;;;;;;;;;;19.01;76.28;96760.11;1826067;77;20114;-78
2021/07/04 06:22:18;;;;;;;;;;;;;;;19.02;74.69;96759.91;1822836;77;20104;-77
2021/07/04 06:24:44;;;;;;;;;;;;;;;19.11;77.78;96763.33;1835587;77;20099;-79
2021/07/04 06:27:11;;;;;;;;;;;;;;;19.17;74.35;96764.41;1848154;77;20092;-75
2021/07/04 06:29:37;;;;;;;;;;;;;;;19.24;74.50;96765.34;1846912;77;20120;-85
2021/07/04 06:32:04;;;;;;;;;;;;;;;19.37;74.20;96765.16;1845432;77;20096;-81
2021/07/04 06:34:30;;;;;;;;;;;;;;;19.43;74.77;96761.23;1845701;77;20463;-78
2021/07/04 06:36:56;;;;;;;;;;;;;;;19.49;76.22;96763.15;1822999;77;20113;-75
2021/07/04 06:39:22;;;;;;;;;;;;;;;19.57;72.71;96765.41;1843509;77;20130;-75
2021/07/04 06:41:48;;;;;;;;;;;;;;;19.70;75.01;96769.55;1848864;77;20122;-81
2021/07/04 06:44:14;;;;;;;;;;;;;;;19.78;73.83;96761.94;1851430;77;20142;-77
2021/07/04 06:46:42;;;;;;;;;;;;;;;19.87;71.87;96763.99;1848433;77;20157;-80
2021/07/04 06:49:08;;;;;;;;;;;;;;;19.95;74.06;96760.70;1852000;77;20118;-76
2021/07/04 06:51:35;;;;;;;;;;;;;;;20.01;70.95;96760.94;1849439;77;20131;-76
2021/07/04 06:54:02;;;;;;;;;;;;;;;20.11;73.35;96756.94;1849733;77;20114;-79
2021/07/04 06:56:29;;;;;;;;;;;;;;;20.16;74.43;96752.34;1848796;77;20143;-84
2021/07/04 06:58:55;;;;;;;;;;;;;;;20.19;78.20;96760.50;1850693;77;20177;-86
2021/07/04 07:01:21;;;;;;;;;;;;;;;20.16;74.08;96753.69;1847237;77;20152;-75
2021/07/04 07:03:47;;;;;;;;;;;;;;;20.20;72.84;96752.27;1850388;77;20129;-75
2021/07/04 07:06:13;;;;;;;;;;;;;;;20.29;75.44;96755.13;1841474;77;20088;-77
2021/07/04 07:08:39;;;;;;;;;;;;;;;20.34;71.72;96753.73;1839315;77;20151;-80
2021/07/04 07:11:05;;;;;;;;;;;;;;;20.37;72.39;96756.84;1831425;77;20108;-77
2021/07/04 07:13:31;;;;;;;;;;;;;;;20.47;76.84;96756.48;1834522;77;20104;-74
2021/07/04 07:15:58;;;;;;;;;;;;;;;20.44;65.54;96757.71;1832567;77;20392;-80
2021/07/04 07:18:25;;;;;;;;;;;;;;;20.52;69.11;96748.72;1839840;77;20172;-74
2021/07/04 07:20:52;;;;;;;;;;;;;;;20.63;77.07;96751.36;1847074;77;20147;-83
2021/07/04 07:23:18;;;;;;;;;;;;;;;20.70;71.94;96753.56;1839235;77;20403;-76
2021/07/04 07:25:44;;;;;;;;;;;;;;;20.87;70.00;96755.98;1828847;77;20124;-76
2021/07/04 07:28:10;;;;;;;;;;;;;;;20.89;77.89;96755.25;1822633;77;20100;-75
2021/07/04 07:30:38;;;;;;;;;;;;;;;20.97;71.21;96751.10;1826175;77;20104;-76
2021/07/04 07:33:05;;;;;;;;;;;;;;;21.06;67.07;96751.25;1834612;77;20368;-78
2021/07/04 07:35:32;;;;;;;;;;;;;;;21.23;72.12;96754.93;1834085;77;20437;-76
2021/07/04 07:38:02;;;;;;;;;;;;;;;21.38;68.20;96754.27;1839672;78;20105;-75
2021/07/04 07:40:30;;;;;;;;;;;;;;;21.42;66.12;96747.98;1840372;77;20169;-75
2021/07/04 07:42:57;;;;;;;;;;;;;;;21.44;73.58;96762.52;1829302;77;20100;-76
2021/07/04 07:45:23;;;;;;;;;;;;;;;21.34;74.51;96765.58;1850398;77;20088;-76
2021/07/04 07:47:51;;;;;;;;;;;;;;;21.29;69.85;96758.67;1834327;77;20100;-76
2021/07/04 07:50:17;;;;;;;;;;;;;;;21.29;65.61;96760.01;1834651;77;20155;-76
2021/07/04 07:52:44;;;;;;;;;;;;;;;21.37;71.25;96757.97;1846050;77;20427;-75
2021/07/04 07:55:11;;;;;;;;;;;;;;;21.44;67.01;96764.70;1839178;77;20408;-76
2021/07/04 07:57:38;;;;;;;;;;;;;;;21.56;66.91;96763.60;1819920;77;20103;-74
2021/07/04 08:00:07;;;;;;;;;;;;;;;21.72;69.42;96760.27;1824104;77;20136;-74
2021/07/04 08:02:35;;;;;;;;;;;;;;;21.76;69.97;96769.05;1819730;77;20150;-76
2021/07/04 08:05:01;;;;;;;;;;;;;;;21.71;68.35;96770.17;1845170;77;20088;-75
2021/07/04 08:07:27;;;;;;;;;;;;;;;21.68;67.48;96773.25;1852658;77;20115;-77
2021/07/04 08:09:53;;;;;;;;;;;;;;;21.66;70.36;96771.31;1850172;77;20096;-79
2021/07/04 08:12:20;;;;;;;;;;;;;;;21.55;67.10;96771.33;1832404;77;20123;-86
2021/07/04 08:14:48;;;;;;;;;;;;;;;21.55;66.99;96776.69;1844494;77;20396;-77
2021/07/04 08:17:15;;;;;;;;;;;;;;;21.47;67.88;96781.73;1837338;77;20243;-77
2021/07/04 08:19:41;;;;;;;;;;;;;;;21.43;72.26;96779.13;1825650;77;20396;-75
2021/07/04 08:22:07;;;;;;;;;;;;;;;21.41;69.37;96777.68;1834485;77;20209;-76
2021/07/04 08:24:33;;;;;;;;;;;;;;;21.40;67.16;96782.20;1847728;77;20100;-76
2021/07/04 08:26:59;;;;;;;;;;;;;;;21.49;71.52;96782.34;1846138;77;20092;-76
2021/07/04 08:29:25;;;;;;;;;;;;;;;21.56;65.34;96779.69;1845776;77;20100;-78
2021/07/04 08:31:52;;;;;;;;;;;;;;;21.71;69.14;96782.77;1846447;77;20174;-75
2021/07/04 08:34:18;;;;;;;;;;;;;;;21.76;71.07;96785.66;1824349;77;20088;-76
2021/07/04 08:36:44;;;;;;;;;;;;;;;21.83;65.05;96775.77;1822393;77;20164;-79
2021/07/04 08:39:10;;;;;;;;;;;;;;;21.90;64.13;96776.61;1829714;77;20180;-75
2021/07/04 08:41:37;;;;;;;;;;;;;;;22.01;69.98;96781.91;1816794;78;20457;-75
2021/07/04 08:44:08;;;;;;;;;;;;;;;22.07;67.26;96773.56;1826671;77;20120;-76
2021/07/04 08:46:42;;;;;;;;;;;;;;;22.38;65.75;96778.83;1818879;78;20191;-74
2021/07/04 08:49:09;;;;;;;;;;;;;;;22.66;66.54;96775.98;1818514;78;20112;-74
2021/07/04 08:51:37;;;;;;;;;;;;;;;23.09;68.11;96767.94;1818254;78;20092;-73
2021/07/04 08:54:05;;;;;;;;;;;;;;;23.58;65.15;96767.56;1796531;78;20148;-75
2021/07/04 08:56:31;;;;;;;;;;;;;;;23.99;70.86;96767.16;1800407;77;20100;-75
2021/07/04 08:58:57;;;;;;;;;;;;;;;24.22;67.71;96765.77;1821886;77;20116;-75
2021/07/04 09:01:25;;;;;;;;;;;;;;;24.29;61.67;96763.03;1826736;77;20402;-76
2021/07/04 09:04:07;;;;;;;;;;;;;;;24.44;67.01;96764.87;1833459;77;20096;-77
2021/07/04 09:06:45;;;;;;;;;;;;;;;24.42;61.34;96754.02;1844642;77;20143;-76
2021/07/04 09:09:28;;;;;;;;;;;;;;;24.56;61.84;96762.27;1824928;77;20147;-76
2021/07/04 09:12:07;;;;;;;;;;;;;;;24.62;65.50;96756.53;1838253;77;20393;-76
2021/07/04 09:14:39;;;;;;;;;;;;;;;24.66;59.03;96749.66;1845579;77;20127;-76
2021/07/04 09:17:10;;;;;;;;;;;;;;;24.92;64.78;96743.19;1843348;77;20167;-74
2021/07/04 09:19:40;;;;;;;;;;;;;;;25.14;60.90;96753.55;1847052;77;20928;-74
2021/07/04 09:22:09;;;;;;;;;;;;;;;25.02;58.87;96742.69;1824608;77;20250;-74
2021/07/04 09:24:42;;;;;;;;;;;;;;;24.82;58.20;96738.87;1841967;77;20100;-76
2021/07/04 09:27:12;;;;;;;;;;;;;;;24.81;63.42;96743.95;1838213;77;20437;-73
2021/07/04 09:29:42;;;;;;;;;;;;;;;24.77;55.62;96739.54;1842490;77;20093;-77
2021/07/04 09:32:19;;;;;;;;;;;;;;;24.68;62.39;96744.91;1849635;77;20166;-75
2021/07/04 09:34:58;;;;;;;;;;;;;;;24.56;60.73;96742.06;1819335;77;20140;-74
2021/07/04 09:37:34;;;;;;;;;;;;;;;24.63;56.92;96746.90;1808253;78;20169;-76
2021/07/04 09:40:23;;;;;;;;;;;;;;;24.94;57.30;96737.06;1817211;78;20102;-79
2021/07/04 09:43:14;;;;;;;;;;;;;;;25.31;51.89;96737.59;1818097;78;20392;-73
2021/07/04 09:45:47;;;;;;;;;;;;;;;25.47;56.42;96732.64;1818463;78;20119;-75
2021/07/04 09:48:23;;;;;;;;;;;;;;;25.65;56.22;96739.89;1818797;77;20084;-77
2021/07/04 09:50:52;;;;;;;;;;;;;;;25.79;51.40;96739.99;1828549;77;20132;-73
2021/07/04 09:53:20;;;;;;;;;;;;;;;25.36;52.58;96740.95;1818417;78;20432;-73
2021/07/04 09:55:51;;;;;;;;;;;;;;;25.25;54.32;96741.17;1818244;77;20171;-73
2021/07/04 09:58:14;;;;;;;;;;;;;;;25.38;55.63;96732.13;1818106;78;20107;-77
2021/07/04 10:00:43;;;;;;;;;;;;;;;25.45;53.72;96726.64;1816172;78;20123;-76
2021/07/04 10:03:17;;;;;;;;;;;;;;;25.71;55.11;96734.92;1824518;77;20104;-75
2021/07/04 10:05:46;;;;;;;;;;;;;;;25.84;59.97;96729.86;1819215;77;20409;-76
2021/07/04 10:08:35;;;;;;;;;;;;;;;25.78;54.08;96735.64;1815450;78;20497;-79
2021/07/04 10:11:13;;;;;;;;;;;;;;;25.50;57.08;96737.05;1825788;77;20168;-76
2021/07/04 10:13:41;;;;;;;;;;;;;;;25.03;54.85;96732.72;1816345;78;20175;-75
2021/07/04 10:16:11;;;;;;;;;;;;;;;24.79;53.91;96732.57;1817318;78;20389;-76
2021/07/04 10:18:38;;;;;;;;;;;;;;;24.78;58.70;96732.27;1820266;78;20401;-77
2021/07/04 10:21:05;;;;;;;;;;;;;;;24.71;59.70;96747.14;1819739;78;20104;-77
2021/07/04 10:23:31;;;;;;;;;;;;;;;24.59;57.06;96735.44;1818626;78;20147;-77
2021/07/04 10:25:59;;;;;;;;;;;;;;;24.39;54.24;96740.48;1821904;77;20110;-77
2021/07/04 10:28:37;;;;;;;;;;;;;;;24.06;54.86;96732.13;1844851;77;20433;-74
2021/07/04 10:31:12;;;;;;;;;;;;;;;24.11;55.36;96736.85;1844073;77;20151;-76
2021/07/04 10:33:38;;;;;;;;;;;;;;;24.25;54.78;96737.06;1844041;77;20506;-77
2021/07/04 10:36:18;;;;;;;;;;;;;;;24.40;57.87;96735.39;1834185;77;20451;-73
2021/07/04 10:39:02;;;;;;;;;;;;;;;24.74;58.49;96728.36;1838680;77;20119;-77
2021/07/04 10:41:32;;;;;;;;;;;;;;;25.09;53.69;96723.21;1829595;78;20100;-76
2021/07/04 10:44:09;;;;;;;;;;;;;;;25.37;52.89;96718.33;1819340;78;20108;-72
2021/07/04 10:46:51;;;;;;;;;;;;;;;25.76;61.33;96717.50;1823352;77;20171;-74
2021/07/04 10:49:22;;;;;;;;;;;;;;;25.86;55.65;96709.67;1824624;77;20152;-82
2021/07/04 10:52:07;;;;;;;;;;;;;;;26.14;55.14;96716.87;1818603;78;20183;-77
2021/07/04 10:54:46;;;;;;;;;;;;;;;26.27;50.11;96708.54;1818963;78;20502;-77
2021/07/04 10:57:20;;;;;;;;;;;;;;;26.26;47.84;96710.14;1828660;77;20400;-76
2021/07/04 11:00:03;;;;;;;;;;;;;;;26.25;53.19;96707.14;1821207;77;20228;-78
2021/07/04 11:02:39;;;;;;;;;;;;;;;26.19;52.38;96712.94;1815888;78;20097;-75
2021/07/04 11:05:07;;;;;;;;;;;;;;;26.14;56.04;96714.98;1827842;77;20092;-79
2021/07/04 11:07:53;;;;;;;;;;;;;;;25.91;49.14;96714.92;1818620;78;20144;-76
2021/07/04 11:10:24;;;;;;;;;;;;;;;25.51;49.81;96710.92;1817090;78;20112;-76
2021/07/04 11:12:57;;;;;;;;;;;;;;;25.19;52.99;96702.98;1816774;78;20148;-75
2021/07/04 11:15:25;;;;;;;;;;;;;;;24.90;64.34;96708.09;1803667;78;20159;-75
2021/07/04 11:17:58;;;;;;;;;;;;;;;24.54;54.65;96700.24;1818976;78;21203;-75
2021/07/04 11:20:27;;;;;;;;;;;;;;;24.44;55.31;96707.50;1814385;78;20436;-78
2021/07/04 11:22:58;;;;;;;;;;;;;;;24.40;56.78;96702.23;1819222;78;20389;-78
2021/07/04 11:25:25;;;;;;;;;;;;;;;24.35;52.98;96696.17;1820217;78;20128;-84
2021/07/04 11:28:20;;;;;;;;;;;;;;;24.43;58.36;96694.53;1819753;78;20099;-76
2021/07/04 11:30:55;;;;;;;;;;;;;;;24.49;54.70;96700.91;1820469;78;20206;-79
2021/07/04 11:33:32;;;;;;;;;;;;;;;24.50;56.68;96693.67;1818401;78;20127;-83
2021/07/04 11:36:04;;;;;;;;;;;;;;;24.43;57.59;96698.58;1819942;78;20210;-85
2021/07/04 11:38:36;;;;;;;;;;;;;;;24.40;63.46;96694.16;1812977;78;20091;-75
2021/07/04 11:41:04;;;;;;;;;;;;;;;24.37;56.08;96692.73;1820530;77;20150;-78
2021/07/04 11:43:31;;;;;;;;;;;;;;;24.52;55.83;96688.86;1819912;78;20104;-77
2021/07/04 11:46:00;;;;;;;;;;;;;;;24.79;63.21;96692.15;1818740;78;20432;-77
2021/07/04 11:48:52;;;;;;;;;;;;;;;24.60;51.82;96688.06;1831858;77;20212;-77
2021/07/04 11:51:26;;;;;;;;;;;;;;;24.44;58.52;96688.64;1845787;77;20126;-77
2021/07/04 11:53:55;;;;;;;;;;;;;;;24.12;54.86;96683.31;1850414;77;20177;-76
2021/07/04 11:56:21;;;;;;;;;;;;;;;24.24;58.22;96680.22;1847901;77;20125;-77
2021/07/04 11:58:47;;;;;;;;;;;;;;;24.29;56.24;96668.79;1844807;77;20131;-76
2021/07/04 12:01:16;;;;;;;;;;;;;;;24.45;56.23;96666.05;1833772;77;20080;-78
2021/07/04 12:03:42;;;;;;;;;;;;;;;24.70;51.88;96668.70;1827680;77;20095;-79
2021/07/04 12:06:08;;;;;;;;;;;;;;;24.75;53.37;96670.72;1842289;77;20195;-77
2021/07/04 12:08:59;;;;;;;;;;;;;;;24.87;56.39;96676.21;1841998;77;20170;-82
2021/07/04 12:11:50;;;;;;;;;;;;;;;24.98;54.85;96666.54;1822444;77;20103;-77
2021/07/04 12:14:26;;;;;;;;;;;;;;;25.03;53.80;96667.51;1822791;77;20103;-76
2021/07/04 12:16:53;;;;;;;;;;;;;;;25.01;55.54;96671.48;1827731;77;20116;-78
2021/07/04 12:19:29;;;;;;;;;;;;;;;25.05;53.27;96665.92;1817806;77;20100;-80
2021/07/04 12:21:57;;;;;;;;;;;;;;;25.04;53.88;96669.16;1814939;78;20146;-81
2021/07/04 12:24:38;;;;;;;;;;;;;;;25.12;54.68;96671.24;1817452;78;20120;-77
2021/07/04 12:27:07;;;;;;;;;;;;;;;25.27;55.49;96674.36;1815795;78;20400;-77
2021/07/04 12:30:00;;;;;;;;;;;;;;;25.50;57.17;96670.96;1819645;78;20145;-75
2021/07/04 12:32:29;;;;;;;;;;;;;;;25.77;52.74;96668.41;1815470;78;20132;-79
2021/07/04 12:34:55;;;;;;;;;;;;;;;25.87;54.00;96662.73;1816411;78;20189;-79
2021/07/04 12:37:24;;;;;;;;;;;;;;;25.84;48.38;96664.56;1817885;78;20389;-78
2021/07/04 12:40:06;;;;;;;;;;;;;;;25.84;49.22;96660.52;1822882;77;20389;-75
2021/07/04 12:42:33;;;;;;;;;;;;;;;25.96;50.89;96671.84;1820273;78;20134;-79
2021/07/04 12:45:12;;;;;;;;;;;;;;;25.89;49.33;96669.27;1847395;77;20110;-76
2021/07/04 12:47:39;;;;;;;;;;;;;;;25.81;50.66;96674.47;1846197;77;20613;-76
2021/07/04 12:50:12;;;;;;;;;;;;;;;25.77;56.59;96680.02;1849326;77;20462;-77
2021/07/04 12:52:52;;;;;;;;;;;;;;;25.61;48.93;96678.82;1848215;77;20145;-77
2021/07/04 12:55:39;;;;;;;;;;;;;;;25.39;51.95;96677.09;1847814;77;20135;-79
2021/07/04 12:58:26;;;;;;;;;;;;;;;25.09;52.09;96679.27;1846312;77;20142;-75
2021/07/04 13:00:55;;;;;;;;;;;;;;;24.80;51.87;96677.63;1847576;77;20171;-80